sensor_id;sensor_type;location;lat;lon;timestamp;pressure;altitude;pressure_sealevel;temperature;humidity
31501;BME280;31032;49.512;10.892;2022-07-10T00:00:14;98409.34;;;15.98;100.00
31501;BME280;31032;49.512;10.892;2022-07-10T00:02:40;98409.63;;;15.95;100.00
31501;BME280;31032;49.512;10.892;2022-07-10T00:05:07;98407.41;;;16.00;100.00
31501;BME280;31032;49.512;10.892;2022-07-10T00:07:32;98400.63;;;15.80;100.00
31501;BME280;31032;49.512;10.892;2022-07-10T00:09:58;98410.44;;;15.78;100.00
31501;BME280;31032;49.512;10.892;2022-07-10T00:12:24;98405.66;;;15.64;100.00
31501;BME280;31032;49.512;10.892;2022-07-10T00:14:49;98405.63;;;15.47;100.00
31501;BME280;31032;49.512;10.892;2022-07-10T00:17:15;98401.00;;;15.31;100.00
31501;BME280;31032;49.512;10.892;2022-07-10T00:19:40;98406.22;;;15.31;100.00
31501;BME280;31032;49.512;10.892;2022-07-10T00:22:05;98397.38;;;15.32;100.00
31501;BME280;31032;49.512;10.892;2022-07-10T00:24:31;98402.25;;;15.27;100.00
31501;BME280;31032;49.512;10.892;2022-07-10T00:26:57;98392.81;;;15.34;100.00
31501;BME280;31032;49.512;10.892;2022-07-10T00:29:22;98398.56;;;15.47;100.00
31501;BME280;31032;49.512;10.892;2022-07-10T00:31:48;98397.72;;;15.56;100.00
31501;BME280;31032;49.512;10.892;2022-07-10T00:34:13;98388.34;;;15.54;100.00
31501;BME280;31032;49.512;10.892;2022-07-10T00:36:38;98395.09;;;15.56;100.00
31501;BME280;31032;49.512;10.892;2022-07-10T00:39:04;98388.28;;;15.63;100.00
31501;BME280;31032;49.512;10.892;2022-07-10T00:41:29;98394.91;;;15.67;100.00
31501;BME280;31032;49.512;10.892;2022-07-10T00:43:56;98398.97;;;15.79;100.00
31501;BME280;31032;49.512;10.892;2022-07-10T00:46:27;98397.56;;;15.85;100.00
31501;BME280;31032;49.512;10.892;2022-07-10T00:48:53;98394.53;;;15.53;100.00
31501;BME280;31032;49.512;10.892;2022-07-10T00:51:20;98397.91;;;15.72;100.00
31501;BME280;31032;49.512;10.892;2022-07-10T00:53:47;98399.03;;;15.43;100.00
31501;BME280;31032;49.512;10.892;2022-07-10T00:56:18;98399.28;;;15.39;100.00
31501;BME280;31032;49.512;10.892;2022-07-10T00:58:45;98395.75;;;15.21;100.00
31501;BME280;31032;49.512;10.892;2022-07-10T01:01:11;98395.72;;;15.04;100.00
31501;BME280;31032;49.512;10.892;2022-07-10T01:03:36;98401.75;;;15.04;100.00
31501;BME280;31032;49.512;10.892;2022-07-10T01:06:02;98399.72;;;14.89;100.00
31501;BME280;31032;49.512;10.892;2022-07-10T01:08:28;98404.38;;;15.04;100.00
31501;BME280;31032;49.512;10.892;2022-07-10T01:10:54;98402.47;;;14.97;100.00
31501;BME280;31032;49.512;10.892;2022-07-10T01:13:19;98400.16;;;14.94;100.00
31501;BME280;31032;49.512;10.892;2022-07-10T01:15:45;98393.28;;;14.74;100.00
31501;BME280;31032;49.512;10.892;2022-07-10T01:18:12;98400.44;;;14.72;100.00
31501;BME280;31032;49.512;10.892;2022-07-10T01:20:38;98400.69;;;14.88;100.00
31501;BME280;31032;49.512;10.892;2022-07-10T01:23:03;98402.91;;;14.83;100.00
31501;BME280;31032;49.512;10.892;2022-07-10T01:25:29;98399.06;;;14.77;100.00
31501;BME280;31032;49.512;10.892;2022-07-10T01:27:54;98396.59;;;14.76;100.00
31501;BME280;31032;49.512;10.892;2022-07-10T01:30:20;98390.41;;;14.77;100.00
31501;BME280;31032;49.512;10.892;2022-07-10T01:32:46;98391.75;;;14.81;100.00
31501;BME280;31032;49.512;10.892;2022-07-10T01:35:12;98387.19;;;14.83;100.00
31501;BME280;31032;49.512;10.892;2022-07-10T01:37:39;98385.16;;;14.77;100.00
31501;BME280;31032;49.512;10.892;2022-07-10T01:40:05;98389.41;;;14.78;100.00
31501;BME280;31032;49.512;10.892;2022-07-10T01:42:31;98390.22;;;14.88;100.00
31501;BME280;31032;49.512;10.892;2022-07-10T01:44:56;98391.63;;;14.73;100.00
31501;BME280;31032;49.512;10.892;2022-07-10T01:47:22;98394.34;;;14.81;100.00
31501;BME280;31032;49.512;10.892;2022-07-10T01:49:53;98395.47;;;14.88;100.00
31501;BME280;31032;49.512;10.892;2022-07-10T01:52:19;98400.03;;;14.86;100.00
31501;BME280;31032;49.512;10.892;2022-07-10T01:54:45;98397.97;;;14.80;100.00
31501;BME280;31032;49.512;10.892;2022-07-10T01:57:11;98398.66;;;14.82;100.00
31501;BME280;31032;49.512;10.892;2022-07-10T01:59:36;98398.47;;;14.93;100.00
31501;BME280;31032;49.512;10.892;2022-07-10T02:02:02;98400.19;;;14.75;100.00
31501;BME280;31032;49.512;10.892;2022-07-10T02:04:27;98410.66;;;14.75;100.00
31501;BME280;31032;49.512;10.892;2022-07-10T02:07:12;98410.66;;;14.75;100.00
31501;BME280;31032;49.512;10.892;2022-07-10T02:09:38;98417.00;;;14.72;100.00
31501;BME280;31032;49.512;10.892;2022-07-10T02:12:08;98414.66;;;14.69;100.00
31501;BME280;31032;49.512;10.892;2022-07-10T02:14:34;98417.84;;;14.73;100.00
31501;BME280;31032;49.512;10.892;2022-07-10T02:16:59;98412.72;;;14.71;100.00
31501;BME280;31032;49.512;10.892;2022-07-10T02:19:25;98414.66;;;14.79;100.00
31501;BME280;31032;49.512;10.892;2022-07-10T02:21:50;98413.84;;;14.59;100.00
31501;BME280;31032;49.512;10.892;2022-07-10T02:24:16;98418.53;;;14.56;100.00
31501;BME280;31032;49.512;10.892;2022-07-10T02:26:42;98418.97;;;14.61;100.00
31501;BME280;31032;49.512;10.892;2022-07-10T02:29:07;98416.50;;;14.50;100.00
31501;BME280;31032;49.512;10.892;2022-07-10T02:31:33;98412.63;;;14.63;100.00
31501;BME280;31032;49.512;10.892;2022-07-10T02:34:00;98422.53;;;14.50;100.00
31501;BME280;31032;49.512;10.892;2022-07-10T02:36:26;98420.06;;;14.48;100.00
31501;BME280;31032;49.512;10.892;2022-07-10T02:38:51;98429.00;;;14.46;100.00
31501;BME280;31032;49.512;10.892;2022-07-10T02:41:17;98428.31;;;14.34;100.00
31501;BME280;31032;49.512;10.892;2022-07-10T02:43:42;98424.47;;;14.29;100.00
31501;BME280;31032;49.512;10.892;2022-07-10T02:46:07;98421.03;;;14.28;100.00
31501;BME280;31032;49.512;10.892;2022-07-10T02:48:33;98412.91;;;14.31;100.00
31501;BME280;31032;49.512;10.892;2022-07-10T02:50:59;98421.81;;;14.19;100.00
31501;BME280;31032;49.512;10.892;2022-07-10T02:53:24;98423.34;;;14.12;100.00
31501;BME280;31032;49.512;10.892;2022-07-10T02:55:49;98427.47;;;14.15;100.00
31501;BME280;31032;49.512;10.892;2022-07-10T02:58:15;98427.19;;;14.18;100.00
31501;BME280;31032;49.512;10.892;2022-07-10T03:00:40;98420.56;;;14.14;99.04
31501;BME280;31032;49.512;10.892;2022-07-10T03:03:07;98418.34;;;14.09;98.11
31501;BME280;31032;49.512;10.892;2022-07-10T03:05:33;98423.59;;;14.09;97.33
31501;BME280;31032;49.512;10.892;2022-07-10T03:07:58;98421.66;;;14.11;97.37
31501;BME280;31032;49.512;10.892;2022-07-10T03:10:24;98416.44;;;14.11;95.40
31501;BME280;31032;49.512;10.892;2022-07-10T03:12:49;98409.09;;;13.96;96.19
31501;BME280;31032;49.512;10.892;2022-07-10T03:15:14;98413.41;;;13.97;95.44
31501;BME280;31032;49.512;10.892;2022-07-10T03:17:40;98418.16;;;13.82;96.49
31501;BME280;31032;49.512;10.892;2022-07-10T03:20:06;98414.88;;;13.80;95.90
31501;BME280;31032;49.512;10.892;2022-07-10T03:22:32;98418.84;;;13.75;96.35
31501;BME280;31032;49.512;10.892;2022-07-10T03:24:58;98425.44;;;13.69;97.43
31501;BME280;31032;49.512;10.892;2022-07-10T03:27:23;98424.59;;;13.69;95.41
31501;BME280;31032;49.512;10.892;2022-07-10T03:29:48;98421.75;;;13.72;95.00
31501;BME280;31032;49.512;10.892;2022-07-10T03:32:14;98428.50;;;13.74;94.74
31501;BME280;31032;49.512;10.892;2022-07-10T03:34:39;98435.75;;;13.71;96.18
31501;BME280;31032;49.512;10.892;2022-07-10T03:37:05;98429.31;;;13.75;95.71
31501;BME280;31032;49.512;10.892;2022-07-10T03:39:31;98432.53;;;13.88;93.93
31501;BME280;31032;49.512;10.892;2022-07-10T03:41:56;98436.47;;;13.82;95.03
31501;BME280;31032;49.512;10.892;2022-07-10T03:44:21;98438.47;;;13.90;94.04
31501;BME280;31032;49.512;10.892;2022-07-10T03:46:47;98432.41;;;13.99;92.65
31501;BME280;31032;49.512;10.892;2022-07-10T03:49:12;98438.19;;;14.02;90.86
31501;BME280;31032;49.512;10.892;2022-07-10T03:51:37;98440.94;;;13.91;90.93
31501;BME280;31032;49.512;10.892;2022-07-10T03:54:03;98440.13;;;14.00;90.47
31501;BME280;31032;49.512;10.892;2022-07-10T03:56:28;98446.44;;;14.07;88.51
31501;BME280;31032;49.512;10.892;2022-07-10T03:59:12;98446.16;;;13.91;89.84
31501;BME280;31032;49.512;10.892;2022-07-10T04:01:38;98447.28;;;13.98;90.94
31501;BME280;31032;49.512;10.892;2022-07-10T04:04:03;98438.72;;;13.96;88.88
31501;BME280;31032;49.512;10.892;2022-07-10T04:06:29;98443.44;;;14.02;89.06
31501;BME280;31032;49.512;10.892;2022-07-10T04:08:54;98438.31;;;13.91;88.41
31501;BME280;31032;49.512;10.892;2022-07-10T04:11:19;98447.56;;;13.95;89.40
31501;BME280;31032;49.512;10.892;2022-07-10T04:13:45;98446.44;;;14.07;88.38
31501;BME280;31032;49.512;10.892;2022-07-10T04:16:10;98441.19;;;13.98;88.70
31501;BME280;31032;49.512;10.892;2022-07-10T04:18:41;98440.97;;;14.10;88.23
31501;BME280;31032;49.512;10.892;2022-07-10T04:21:06;98439.19;;;14.11;87.78
31501;BME280;31032;49.512;10.892;2022-07-10T04:23:35;98445.34;;;14.00;88.43
31501;BME280;31032;49.512;10.892;2022-07-10T04:26:01;98442.34;;;14.05;88.40
31501;BME280;31032;49.512;10.892;2022-07-10T04:28:26;98443.84;;;14.07;90.12
31501;BME280;31032;49.512;10.892;2022-07-10T04:30:52;98436.69;;;14.19;88.95
31501;BME280;31032;49.512;10.892;2022-07-10T04:33:17;98436.81;;;14.17;90.55
31501;BME280;31032;49.512;10.892;2022-07-10T04:35:43;98448.13;;;14.08;89.57
31501;BME280;31032;49.512;10.892;2022-07-10T04:38:08;98462.47;;;14.23;89.54
31501;BME280;31032;49.512;10.892;2022-07-10T04:40:34;98464.34;;;13.93;90.73
31501;BME280;31032;49.512;10.892;2022-07-10T04:42:59;98466.28;;;14.00;90.56
31501;BME280;31032;49.512;10.892;2022-07-10T04:45:25;98457.75;;;13.98;87.77
31501;BME280;31032;49.512;10.892;2022-07-10T04:47:50;98452.81;;;14.14;89.23
31501;BME280;31032;49.512;10.892;2022-07-10T04:50:16;98452.28;;;14.20;84.14
31501;BME280;31032;49.512;10.892;2022-07-10T04:52:41;98453.66;;;14.24;83.40
31501;BME280;31032;49.512;10.892;2022-07-10T04:55:07;98461.78;;;14.21;82.58
31501;BME280;31032;49.512;10.892;2022-07-10T04:57:35;98464.13;;;14.24;81.43
31501;BME280;31032;49.512;10.892;2022-07-10T05:00:02;98462.06;;;14.18;78.88
31501;BME280;31032;49.512;10.892;2022-07-10T05:02:27;98458.31;;;14.21;78.97
31501;BME280;31032;49.512;10.892;2022-07-10T05:04:53;98475.59;;;14.33;77.92
31501;BME280;31032;49.512;10.892;2022-07-10T05:07:18;98476.81;;;14.29;76.24
31501;BME280;31032;49.512;10.892;2022-07-10T05:09:43;98469.97;;;14.28;75.85
31501;BME280;31032;49.512;10.892;2022-07-10T05:12:09;98468.03;;;14.30;75.99
31501;BME280;31032;49.512;10.892;2022-07-10T05:14:34;98468.00;;;14.20;74.73
31501;BME280;31032;49.512;10.892;2022-07-10T05:16:59;98475.00;;;14.10;73.28
31501;BME280;31032;49.512;10.892;2022-07-10T05:19:24;98471.84;;;14.16;74.75
31501;BME280;31032;49.512;10.892;2022-07-10T05:21:50;98471.97;;;14.15;73.58
31501;BME280;31032;49.512;10.892;2022-07-10T05:24:15;98469.13;;;14.27;73.88
31501;BME280;31032;49.512;10.892;2022-07-10T05:26:41;98466.50;;;14.27;72.98
31501;BME280;31032;49.512;10.892;2022-07-10T05:29:06;98471.88;;;14.35;74.48
31501;BME280;31032;49.512;10.892;2022-07-10T05:31:32;98463.88;;;14.37;73.51
31501;BME280;31032;49.512;10.892;2022-07-10T05:33:57;98471.06;;;14.44;74.38
31501;BME280;31032;49.512;10.892;2022-07-10T05:36:22;98474.06;;;14.30;74.14
31501;BME280;31032;49.512;10.892;2022-07-10T05:38:48;98476.03;;;14.28;74.08
31501;BME280;31032;49.512;10.892;2022-07-10T05:41:13;98465.78;;;14.25;72.15
31501;BME280;31032;49.512;10.892;2022-07-10T05:43:38;98476.25;;;14.25;73.56
31501;BME280;31032;49.512;10.892;2022-07-10T05:46:04;98485.22;;;14.32;71.89
31501;BME280;31032;49.512;10.892;2022-07-10T05:48:30;98485.13;;;14.34;72.76
31501;BME280;31032;49.512;10.892;2022-07-10T05:50:56;98488.97;;;14.30;72.90
31501;BME280;31032;49.512;10.892;2022-07-10T05:53:21;98485.22;;;14.32;73.19
31501;BME280;31032;49.512;10.892;2022-07-10T05:55:47;98488.97;;;14.39;73.58
31501;BME280;31032;49.512;10.892;2022-07-10T05:58:13;98490.38;;;14.43;74.81
31501;BME280;31032;49.512;10.892;2022-07-10T06:00:38;98487.59;;;14.55;71.88
31501;BME280;31032;49.512;10.892;2022-07-10T06:03:03;98486.63;;;14.36;74.00
31501;BME280;31032;49.512;10.892;2022-07-10T06:05:29;98495.84;;;14.31;73.22
31501;BME280;31032;49.512;10.892;2022-07-10T06:07:54;98497.53;;;14.41;72.15
31501;BME280;31032;49.512;10.892;2022-07-10T06:10:19;98491.44;;;14.31;72.40
31501;BME280;31032;49.512;10.892;2022-07-10T06:12:45;98498.06;;;14.35;74.63
31501;BME280;31032;49.512;10.892;2022-07-10T06:15:10;98489.69;;;14.41;73.15
31501;BME280;31032;49.512;10.892;2022-07-10T06:17:36;98479.34;;;14.50;73.42
31501;BME280;31032;49.512;10.892;2022-07-10T06:20:02;98492.16;;;14.62;74.16
31501;BME280;31032;49.512;10.892;2022-07-10T06:22:27;98495.06;;;14.59;73.82
31501;BME280;31032;49.512;10.892;2022-07-10T06:24:56;98490.09;;;14.46;73.91
31501;BME280;31032;49.512;10.892;2022-07-10T06:27:22;98495.06;;;14.59;72.98
31501;BME280;31032;49.512;10.892;2022-07-10T06:29:48;98497.41;;;14.62;73.95
31501;BME280;31032;49.512;10.892;2022-07-10T06:32:13;98488.44;;;14.65;72.58
31501;BME280;31032;49.512;10.892;2022-07-10T06:34:38;98489.81;;;14.69;74.65
31501;BME280;31032;49.512;10.892;2022-07-10T06:37:04;98498.09;;;14.55;73.35
31501;BME280;31032;49.512;10.892;2022-07-10T06:39:32;98484.16;;;14.64;71.74
31501;BME280;31032;49.512;10.892;2022-07-10T06:42:04;98489.38;;;14.73;72.85
31501;BME280;31032;49.512;10.892;2022-07-10T06:44:29;98491.47;;;14.70;71.45
31501;BME280;31032;49.512;10.892;2022-07-10T06:46:55;98487.59;;;14.74;72.89
31501;BME280;31032;49.512;10.892;2022-07-10T06:49:40;98497.53;;;14.80;67.49
31501;BME280;31032;49.512;10.892;2022-07-10T06:52:06;98495.88;;;14.60;66.04
31501;BME280;31032;49.512;10.892;2022-07-10T06:54:32;98501.09;;;14.50;66.71
31501;BME280;31032;49.512;10.892;2022-07-10T06:56:58;98495.88;;;14.40;67.94
31501;BME280;31032;49.512;10.892;2022-07-10T06:59:23;98502.47;;;14.44;67.60
31501;BME280;31032;49.512;10.892;2022-07-10T07:01:48;98504.72;;;14.59;69.92
31501;BME280;31032;49.512;10.892;2022-07-10T07:04:14;98499.72;;;14.56;67.80
31501;BME280;31032;49.512;10.892;2022-07-10T07:06:39;98509.25;;;14.57;67.95
31501;BME280;31032;49.512;10.892;2022-07-10T07:09:04;98509.13;;;14.58;66.78
31501;BME280;31032;49.512;10.892;2022-07-10T07:11:30;98500.56;;;14.66;65.73
31501;BME280;31032;49.512;10.892;2022-07-10T07:13:55;98507.47;;;14.95;64.79
31501;BME280;31032;49.512;10.892;2022-07-10T07:16:20;98499.59;;;14.95;64.40
31501;BME280;31032;49.512;10.892;2022-07-10T07:18:52;98503.88;;;15.06;65.29
31501;BME280;31032;49.512;10.892;2022-07-10T07:21:19;98508.81;;;15.18;63.73
31501;BME280;31032;49.512;10.892;2022-07-10T07:24:03;98501.09;;;15.17;62.45
31501;BME280;31032;49.512;10.892;2022-07-10T07:26:30;98502.47;;;15.11;63.38
31501;BME280;31032;49.512;10.892;2022-07-10T07:28:55;98512.66;;;15.24;63.21
31501;BME280;31032;49.512;10.892;2022-07-10T07:31:21;98500.75;;;15.29;61.71
31501;BME280;31032;49.512;10.892;2022-07-10T07:33:46;98502.41;;;15.40;61.83
31501;BME280;31032;49.512;10.892;2022-07-10T07:36:12;98505.31;;;15.47;59.71
31501;BME280;31032;49.512;10.892;2022-07-10T07:38:37;98508.50;;;15.50;60.23
31501;BME280;31032;49.512;10.892;2022-07-10T07:41:02;98508.06;;;15.82;61.13
31501;BME280;31032;49.512;10.892;2022-07-10T07:43:28;98504.66;;;16.08;61.06
31501;BME280;31032;49.512;10.892;2022-07-10T07:45:53;98512.94;;;16.58;56.69
31501;BME280;31032;49.512;10.892;2022-07-10T07:48:18;98508.19;;;16.62;59.16
31501;BME280;31032;49.512;10.892;2022-07-10T07:50:44;98510.97;;;16.15;57.61
31501;BME280;31032;49.512;10.892;2022-07-10T07:53:09;98516.69;;;16.01;58.75
31501;BME280;31032;49.512;10.892;2022-07-10T07:55:34;98515.56;;;15.77;59.64
31501;BME280;31032;49.512;10.892;2022-07-10T07:58:00;98518.81;;;15.61;58.42
31501;BME280;31032;49.512;10.892;2022-07-10T08:00:27;98520.31;;;15.64;60.19
31501;BME280;31032;49.512;10.892;2022-07-10T08:02:54;98524.41;;;15.76;60.19
31501;BME280;31032;49.512;10.892;2022-07-10T08:05:20;98518.63;;;15.72;58.84
31501;BME280;31032;49.512;10.892;2022-07-10T08:07:48;98516.56;;;15.66;59.04
31501;BME280;31032;49.512;10.892;2022-07-10T08:10:15;98526.09;;;15.67;58.59
31501;BME280;31032;49.512;10.892;2022-07-10T08:12:42;98521.16;;;15.55;59.88
31501;BME280;31032;49.512;10.892;2022-07-10T08:15:09;98521.34;;;15.80;60.47
31501;BME280;31032;49.512;10.892;2022-07-10T08:17:34;98529.59;;;15.85;59.39
31501;BME280;31032;49.512;10.892;2022-07-10T08:20:00;98517.78;;;15.72;58.96
31501;BME280;31032;49.512;10.892;2022-07-10T08:22:25;98529.34;;;15.88;59.04
31501;BME280;31032;49.512;10.892;2022-07-10T08:24:51;98522.41;;;15.87;56.84
31501;BME280;31032;49.512;10.892;2022-07-10T08:27:16;98521.78;;;16.03;58.37
31501;BME280;31032;49.512;10.892;2022-07-10T08:29:41;98522.63;;;16.03;56.65
31501;BME280;31032;49.512;10.892;2022-07-10T08:32:07;98509.22;;;16.06;59.11
31501;BME280;31032;49.512;10.892;2022-07-10T08:34:34;98512.47;;;16.36;57.93
31501;BME280;31032;49.512;10.892;2022-07-10T08:36:59;98513.25;;;16.46;58.99
31501;BME280;31032;49.512;10.892;2022-07-10T08:39:26;98505.78;;;16.51;57.60
31501;BME280;31032;49.512;10.892;2022-07-10T08:41:51;98507.06;;;16.19;56.74
31501;BME280;31032;49.512;10.892;2022-07-10T08:44:17;98506.25;;;15.92;55.12
31501;BME280;31032;49.512;10.892;2022-07-10T08:46:43;98507.22;;;16.36;56.98
31501;BME280;31032;49.512;10.892;2022-07-10T08:49:09;98507.44;;;16.52;56.47
31501;BME280;31032;49.512;10.892;2022-07-10T08:51:40;98504.88;;;16.60;56.15
31501;BME280;31032;49.512;10.892;2022-07-10T08:54:07;98513.00;;;16.49;55.96
31501;BME280;31032;49.512;10.892;2022-07-10T08:56:33;98519.59;;;16.53;54.81
31501;BME280;31032;49.512;10.892;2022-07-10T08:59:01;98508.78;;;16.56;55.77
31501;BME280;31032;49.512;10.892;2022-07-10T09:01:27;98504.88;;;16.15;56.66
31501;BME280;31032;49.512;10.892;2022-07-10T09:03:52;98516.03;;;16.44;57.37
31501;BME280;31032;49.512;10.892;2022-07-10T09:06:18;98520.97;;;16.30;55.65
31501;BME280;31032;49.512;10.892;2022-07-10T09:09:02;98509.84;;;16.36;55.53
31501;BME280;31032;49.512;10.892;2022-07-10T09:11:27;98512.19;;;16.39;57.06
31501;BME280;31032;49.512;10.892;2022-07-10T09:13:59;98509.78;;;16.55;58.68
31501;BME280;31032;49.512;10.892;2022-07-10T09:16:26;98516.44;;;16.84;59.31
31501;BME280;31032;49.512;10.892;2022-07-10T09:18:52;98510.97;;;16.95;56.25
31501;BME280;31032;49.512;10.892;2022-07-10T09:21:18;98513.53;;;17.13;58.05
31501;BME280;31032;49.512;10.892;2022-07-10T09:23:43;98508.72;;;17.26;54.65
31501;BME280;31032;49.512;10.892;2022-07-10T09:26:08;98516.50;;;17.53;56.14
31501;BME280;31032;49.512;10.892;2022-07-10T09:28:34;98512.84;;;17.29;54.80
31501;BME280;31032;49.512;10.892;2022-07-10T09:30:59;98512.84;;;17.03;54.76
31501;BME280;31032;49.512;10.892;2022-07-10T09:33:29;98509.09;;;16.70;56.49
31501;BME280;31032;49.512;10.892;2022-07-10T09:36:07;98502.09;;;16.79;56.59
31501;BME280;31032;49.512;10.892;2022-07-10T09:41:21;98522.06;;;17.07;56.49
31501;BME280;31032;49.512;10.892;2022-07-10T09:43:57;98515.47;;;17.03;57.04
31501;BME280;31032;49.512;10.892;2022-07-10T09:46:28;98521.09;;;17.08;58.17
31501;BME280;31032;49.512;10.892;2022-07-10T09:51:36;98508.91;;;17.33;55.26
31501;BME280;31032;49.512;10.892;2022-07-10T09:54:04;98516.59;;;16.83;57.11
31501;BME280;31032;49.512;10.892;2022-07-10T09:56:33;98518.84;;;16.60;58.21
31501;BME280;31032;49.512;10.892;2022-07-10T09:59:08;98519.59;;;16.88;58.77
31501;BME280;31032;49.512;10.892;2022-07-10T10:01:35;98521.94;;;16.91;57.03
31501;BME280;31032;49.512;10.892;2022-07-10T10:04:02;98516.25;;;17.03;58.48
31501;BME280;31032;49.512;10.892;2022-07-10T10:06:30;98518.75;;;17.23;58.46
31501;BME280;31032;49.512;10.892;2022-07-10T10:09:04;98514.06;;;17.42;56.81
31501;BME280;31032;49.512;10.892;2022-07-10T10:11:35;98517.59;;;17.25;58.22
31501;BME280;31032;49.512;10.892;2022-07-10T10:14:02;98523.25;;;17.12;58.10
31501;BME280;31032;49.512;10.892;2022-07-10T10:16:29;98528.97;;;16.73;57.87
31501;BME280;31032;49.512;10.892;2022-07-10T10:18:55;98524.06;;;16.43;59.11
31501;BME280;31032;49.512;10.892;2022-07-10T10:21:39;98526.84;;;16.41;60.59
31501;BME280;31032;49.512;10.892;2022-07-10T10:24:04;98522.91;;;16.55;59.97
31501;BME280;31032;49.512;10.892;2022-07-10T10:26:32;98526.50;;;16.54;59.72
31501;BME280;31032;49.512;10.892;2022-07-10T10:29:00;98526.66;;;16.70;59.96
31501;BME280;31032;49.512;10.892;2022-07-10T10:31:29;98520.84;;;17.01;61.54
31501;BME280;31032;49.512;10.892;2022-07-10T10:33:57;98515.69;;;17.35;59.24
31501;BME280;31032;49.512;10.892;2022-07-10T10:39:04;98503.91;;;18.07;55.63
31501;BME280;31032;49.512;10.892;2022-07-10T10:47:01;98503.56;;;17.68;56.88
31501;BME280;31032;49.512;10.892;2022-07-10T10:49:53;98506.22;;;18.01;54.09
31501;BME280;31032;49.512;10.892;2022-07-10T10:52:20;98505.97;;;17.87;53.46
31501;BME280;31032;49.512;10.892;2022-07-10T10:59:57;98510.97;;;16.95;57.52
31501;BME280;31032;49.512;10.892;2022-07-10T11:02:25;98513.00;;;16.84;58.29
31501;BME280;31032;49.512;10.892;2022-07-10T11:04:52;98519.75;;;16.69;60.80
31501;BME280;31032;49.512;10.892;2022-07-10T11:07:55;98516.91;;;16.62;60.47
31501;BME280;31032;49.512;10.892;2022-07-10T11:10:30;98517.00;;;16.70;60.86
31501;BME280;31032;49.512;10.892;2022-07-10T11:15:21;98532.53;;;16.81;58.45
31501;BME280;31032;49.512;10.892;2022-07-10T11:17:47;98521.84;;;16.83;59.09
31501;BME280;31032;49.512;10.892;2022-07-10T11:20:13;98522.94;;;17.15;58.35
31501;BME280;31032;49.512;10.892;2022-07-10T11:25:53;98524.50;;;17.26;57.76
31501;BME280;31032;49.512;10.892;2022-07-10T11:28:57;98528.63;;;17.03;57.04
31501;BME280;31032;49.512;10.892;2022-07-10T11:31:24;98527.75;;;17.20;57.66
31501;BME280;31032;49.512;10.892;2022-07-10T11:33:55;98527.00;;;17.10;57.00
31501;BME280;31032;49.512;10.892;2022-07-10T11:36:26;98522.78;;;16.74;57.52
31501;BME280;31032;49.512;10.892;2022-07-10T11:39:07;98528.19;;;16.72;56.72
31501;BME280;31032;49.512;10.892;2022-07-10T11:41:34;98518.97;;;16.94;56.92
31501;BME280;31032;49.512;10.892;2022-07-10T11:44:16;98522.97;;;16.80;57.05
31501;BME280;31032;49.512;10.892;2022-07-10T11:46:42;98520.28;;;17.33;56.27
31501;BME280;31032;49.512;10.892;2022-07-10T11:49:10;98511.41;;;17.34;54.42
31501;BME280;31032;49.512;10.892;2022-07-10T11:51:37;98513.28;;;17.67;56.49
31501;BME280;31032;49.512;10.892;2022-07-10T11:54:04;98509.50;;;18.03;53.99
31501;BME280;31032;49.512;10.892;2022-07-10T11:56:35;98508.41;;;18.22;53.51
31501;BME280;31032;49.512;10.892;2022-07-10T12:01:28;98501.56;;;17.95;52.10
31501;BME280;31032;49.512;10.892;2022-07-10T12:04:01;98502.78;;;17.75;53.19
31501;BME280;31032;49.512;10.892;2022-07-10T12:06:28;98494.97;;;17.91;52.91
31501;BME280;31032;49.512;10.892;2022-07-10T12:08:54;98502.16;;;18.31;53.06
31501;BME280;31032;49.512;10.892;2022-07-10T12:11:21;98496.88;;;18.15;50.75
31501;BME280;31032;49.512;10.892;2022-07-10T12:13:48;98499.97;;;18.11;51.62
31501;BME280;31032;49.512;10.892;2022-07-10T12:16:14;98503.47;;;17.77;52.11
31501;BME280;31032;49.512;10.892;2022-07-10T12:18:41;98499.47;;;17.73;53.63
31501;BME280;31032;49.512;10.892;2022-07-10T12:21:08;98500.81;;;18.11;52.51
31501;BME280;31032;49.512;10.892;2022-07-10T12:23:34;98493.75;;;18.28;50.64
31501;BME280;31032;49.512;10.892;2022-07-10T12:26:00;98497.75;;;18.40;51.23
31501;BME280;31032;49.512;10.892;2022-07-10T12:28:28;98501.22;;;18.40;49.78
31501;BME280;31032;49.512;10.892;2022-07-10T12:30:53;98508.03;;;18.59;51.63
31501;BME280;31032;49.512;10.892;2022-07-10T12:33:20;98504.66;;;18.25;50.73
31501;BME280;31032;49.512;10.892;2022-07-10T12:35:58;98498.06;;;18.29;53.68
31501;BME280;31032;49.512;10.892;2022-07-10T12:38:25;98503.56;;;18.01;52.62
31501;BME280;31032;49.512;10.892;2022-07-10T12:41:06;98504.66;;;17.91;52.25
31501;BME280;31032;49.512;10.892;2022-07-10T12:43:32;98510.44;;;17.94;51.75
31501;BME280;31032;49.512;10.892;2022-07-10T12:46:21;98505.72;;;17.98;51.64
31501;BME280;31032;49.512;10.892;2022-07-10T12:49:03;98506.56;;;18.48;52.64
31501;BME280;31032;49.512;10.892;2022-07-10T12:51:51;98504.34;;;18.36;53.96
31501;BME280;31032;49.512;10.892;2022-07-10T12:54:33;98505.81;;;18.30;52.68
31501;BME280;31032;49.512;10.892;2022-07-10T12:56:59;98507.06;;;18.60;53.04
31501;BME280;31032;49.512;10.892;2022-07-10T12:59:26;98511.28;;;18.45;50.21
31501;BME280;31032;49.512;10.892;2022-07-10T13:01:52;98501.16;;;18.66;50.53
31501;BME280;31032;49.512;10.892;2022-07-10T13:04:23;98504.94;;;19.04;51.27
31501;BME280;31032;49.512;10.892;2022-07-10T13:06:49;98507.03;;;18.44;50.39
31501;BME280;31032;49.512;10.892;2022-07-10T13:09:19;98504.03;;;18.39;50.21
31501;BME280;31032;49.512;10.892;2022-07-10T13:11:46;98501.94;;;18.50;50.28
31501;BME280;31032;49.512;10.892;2022-07-10T13:14:11;98502.94;;;18.16;52.31